Terminal Aerodrome Forecast
Issued by NWS

Home | Current Version | Previous Version | Text Only | Print | Product List | Glossary On
Versions: 1 2 3 4 5 6 7 8 9 10 11 12 13 14 15 16 17 18 19 20 21 22 23 24
956
FTUS43 KDMX 230538
TAFOTM
TAF
KOTM 230538Z 2306/2406 19008KT P6SM FEW100
     FM231100 23007KT P6SM SKC
     FM231400 27007KT P6SM SKC
     FM231800 31007KT P6SM SKC
     FM240300 19005KT P6SM FEW200=

USA.gov is the U.S. government's official web portal to all federal, state and local government web resources and services.